Time;durP1;ratioP1;P1;durP2;ratioP2;P2;SDS_P1;SDS_P2;PMS_P1;PMS_P2;Temp;Humidity;BMP_temperature;BMP_pressure;BME280_temperature;BME280_humidity;BME280_pressure;Samples;Min_cycle;Max_cycle;Signal;HPM_P1;HPM_P2
2023/01/28 00:01:37;;;;;;;9.10;5.90;;;;;;;1.45;87.95;102896.94;5037764;28;20075;-77
2023/01/28 00:04:02;;;;;;;9.27;5.45;;;;;;;1.44;87.53;102897.78;5035248;28;20469;-76
2023/01/28 00:06:28;;;;;;;10.10;6.40;;;;;;;1.43;87.49;102902.91;5048049;28;20029;-77
2023/01/28 00:08:54;;;;;;;10.25;6.05;;;;;;;1.42;87.99;102899.50;5045301;28;20468;-76
2023/01/28 00:11:21;;;;;;;10.55;6.40;;;;;;;1.40;88.04;102898.69;5041957;28;20021;-77
2023/01/28 00:13:50;;;;;;;10.07;6.15;;;;;;;1.44;88.37;102905.47;5033001;28;20032;-77
2023/01/28 00:16:16;;;;;;;10.57;6.57;;;;;;;1.46;88.38;102898.63;5037266;28;20025;-76
2023/01/28 00:18:41;;;;;;;9.82;5.68;;;;;;;1.44;88.20;102895.25;5036343;28;20036;-76
2023/01/28 00:21:12;;;;;;;8.63;5.22;;;;;;;1.47;87.99;102895.19;5039516;28;20035;-76
2023/01/28 00:23:39;;;;;;;9.10;5.70;;;;;;;1.49;88.01;102898.59;5039983;28;20036;-76
2023/01/28 00:26:08;;;;;;;9.25;5.45;;;;;;;1.51;88.20;102901.97;5044065;28;20557;-77
2023/01/28 00:28:34;;;;;;;9.43;5.88;;;;;;;1.50;88.13;102899.44;5037348;28;20033;-76
2023/01/28 00:31:16;;;;;;;9.23;5.82;;;;;;;1.52;88.63;102893.44;5035109;28;20029;-77
2023/01/28 00:33:42;;;;;;;10.75;6.70;;;;;;;1.50;88.16;102900.28;5042389;28;20385;-76
2023/01/28 00:36:08;;;;;;;10.27;6.68;;;;;;;1.46;88.07;102893.50;5027811;28;20167;-76
2023/01/28 00:38:34;;;;;;;9.95;6.18;;;;;;;1.48;87.97;102896.88;5043660;28;20140;-76
2023/01/28 00:41:14;;;;;;;10.55;5.82;;;;;;;1.42;88.36;102891.84;5051510;28;20024;-76
2023/01/28 00:43:40;;;;;;;9.90;6.28;;;;;;;1.45;88.74;102890.97;5031201;28;20039;-77
2023/01/28 00:46:07;;;;;;;9.98;6.45;;;;;;;1.46;89.47;102903.72;5038234;28;20017;-76
2023/01/28 00:48:34;;;;;;;10.90;6.97;;;;;;;1.44;89.54;102897.78;5037480;28;20062;-76
2023/01/28 00:50:59;;;;;;;11.05;7.18;;;;;;;1.44;88.83;102892.69;5033468;28;20025;-77
2023/01/28 00:53:25;;;;;;;10.60;6.68;;;;;;;1.44;89.29;102900.34;5033205;28;20030;-77
2023/01/28 00:55:51;;;;;;;10.93;6.82;;;;;;;1.47;89.61;102910.53;5037526;28;20027;-77
2023/01/28 00:58:17;;;;;;;11.48;7.40;;;;;;;1.48;89.94;102912.22;5042715;28;20034;-76
2023/01/28 01:00:42;;;;;;;12.35;7.30;;;;;;;1.47;89.44;102912.25;5037452;28;20122;-76
2023/01/28 01:03:07;;;;;;;11.35;7.45;;;;;;;1.41;89.65;102910.59;5055986;28;20078;-76
2023/01/28 01:05:33;;;;;;;11.88;7.22;;;;;;;1.42;90.22;102907.19;5048879;28;20040;-77
2023/01/28 01:07:59;;;;;;;11.55;7.88;;;;;;;1.40;90.92;102914.03;5035306;28;20473;-77
2023/01/28 01:10:24;;;;;;;13.57;7.95;;;;;;;1.41;90.86;102910.59;5043854;28;20492;-76
2023/01/28 01:12:50;;;;;;;10.80;7.22;;;;;;;1.40;90.36;102910.63;5044987;28;20120;-77
2023/01/28 01:15:17;;;;;;;12.30;7.72;;;;;;;1.38;90.85;102910.66;5045783;28;20461;-76
2023/01/28 01:17:45;;;;;;;12.55;7.93;;;;;;;1.37;90.66;102903.81;5044378;28;20532;-77
2023/01/28 01:20:19;;;;;;;13.60;7.03;;;;;;;1.39;90.68;102909.78;5043472;28;20039;-76
2023/01/28 01:22:45;;;;;;;12.40;7.80;;;;;;;1.32;90.78;102895.38;5037037;28;20271;-76
2023/01/28 01:25:12;;;;;;;11.88;7.60;;;;;;;1.38;90.63;102900.41;5044685;28;20437;-77
2023/01/28 01:27:37;;;;;;;12.85;8.02;;;;;;;1.30;90.89;102892.81;5046774;28;20025;-76
2023/01/28 01:30:03;;;;;;;13.10;8.02;;;;;;;1.36;90.99;102902.13;5042661;28;20033;-76
2023/01/28 01:32:33;;;;;;;13.10;8.18;;;;;;;1.31;90.25;102898.75;5044862;28;20029;-77
2023/01/28 01:34:59;;;;;;;12.57;7.18;;;;;;;1.35;90.48;102910.66;5043973;28;20132;-77
2023/01/28 01:37:25;;;;;;;11.82;7.50;;;;;;;1.31;90.47;102898.75;5049003;28;20112;-76
2023/01/28 01:39:50;;;;;;;13.88;8.25;;;;;;;1.31;90.02;102899.59;5041468;28;20017;-75
2023/01/28 01:42:15;;;;;;;13.57;8.60;;;;;;;1.29;90.07;102906.44;5050651;28;20469;-76
2023/01/28 01:45:01;;;;;;;11.90;7.70;;;;;;;1.31;90.96;102903.88;5044212;28;20392;-77
2023/01/28 01:47:32;;;;;;;12.88;8.38;;;;;;;1.30;90.17;102905.59;5041336;28;20037;-77
2023/01/28 01:50:01;;;;;;;12.57;7.88;;;;;;;1.22;90.39;102897.16;5045322;28;20035;-77
2023/01/28 01:52:32;;;;;;;13.15;8.18;;;;;;;1.23;90.34;102901.41;5039352;28;20477;-77
2023/01/28 01:55:01;;;;;;;13.95;8.70;;;;;;;1.21;90.63;102894.63;5047828;28;20025;-77
2023/01/28 01:57:31;;;;;;;14.82;8.60;;;;;;;1.24;90.47;102897.13;5050576;28;20029;-77
2023/01/28 02:00:04;;;;;;;14.07;8.32;;;;;;;1.22;90.61;102909.09;5028376;28;20083;-76
2023/01/28 02:02:34;;;;;;;14.38;8.35;;;;;;;1.20;90.26;102910.78;5038851;28;20021;-76
2023/01/28 02:05:00;;;;;;;14.20;8.30;;;;;;;1.21;90.88;102897.19;5044722;28;20485;-77
2023/01/28 02:07:26;;;;;;;15.02;8.65;;;;;;;1.26;90.93;102920.97;5047910;28;20031;-76
2023/01/28 02:09:51;;;;;;;15.20;8.25;;;;;;;1.26;91.17;102920.97;5050462;28;20067;-76
2023/01/28 02:12:21;;;;;;;14.02;8.07;;;;;;;1.23;91.30;102903.97;5035482;28;20575;-77
2023/01/28 02:14:55;;;;;;;15.15;8.45;;;;;;;1.16;90.71;102901.47;5039121;28;20465;-77
2023/01/28 02:17:21;;;;;;;14.70;8.70;;;;;;;1.20;91.37;102910.78;5050005;28;20461;-78
2023/01/28 02:19:55;;;;;;;15.20;7.97;;;;;;;1.18;90.79;102915.09;5047053;28;20452;-77
2023/01/28 02:22:58;;;;;;;15.23;8.68;;;;;;;1.16;91.04;102914.25;5047836;28;20024;-77
2023/01/28 02:25:51;;;;;;;15.32;9.02;;;;;;;1.14;90.43;102915.97;5037464;28;20060;-77
2023/01/28 02:28:50;;;;;;;15.10;8.52;;;;;;;1.12;91.20;102912.59;5038017;28;20070;-76
2023/01/28 02:31:26;;;;;;;15.25;8.90;;;;;;;1.05;90.68;102912.63;5036747;28;20087;-76
2023/01/28 02:33:58;;;;;;;15.90;8.57;;;;;;;1.04;90.72;102910.94;5047540;28;20059;-76
2023/01/28 02:36:48;;;;;;;16.15;8.45;;;;;;;1.05;90.57;102912.63;5044693;28;20486;-76
2023/01/28 02:39:27;;;;;;;14.65;8.18;;;;;;;0.98;90.69;102911.00;5045263;28;20083;-76
2023/01/28 02:42:00;;;;;;;16.17;8.07;;;;;;;0.96;90.57;102910.16;5047296;28;20052;-76
2023/01/28 02:44:25;;;;;;;14.88;8.50;;;;;;;0.97;90.47;102919.50;5048147;28;20259;-76
2023/01/28 02:49:50;;;;;;;14.02;8.32;;;;;;;0.86;90.38;102911.09;5046853;28;20538;-76
2023/01/28 02:55:18;;;;;;;16.25;8.27;;;;;;;0.88;90.69;102914.47;5056308;28;20050;-78
2023/01/28 02:58:01;;;;;;;15.23;8.60;;;;;;;0.74;90.68;102896.69;5042191;28;20037;-77
2023/01/28 03:00:32;;;;;;;14.73;8.27;;;;;;;0.87;90.62;102917.91;5037156;28;20039;-76
2023/01/28 03:03:12;;;;;;;14.15;8.57;;;;;;;0.83;90.70;102910.25;5045876;28;20036;-77
2023/01/28 03:06:02;;;;;;;14.45;8.43;;;;;;;0.83;90.14;102916.22;5032430;28;20044;-78
2023/01/28 03:39:15;;;;;;;14.18;8.25;;;;;;;0.75;89.86;102923.09;5043781;28;20041;-77
2023/01/28 03:41:41;;;;;;;15.18;8.23;;;;;;;0.73;89.54;102912.88;5034050;28;20057;-76
2023/01/28 03:46:50;;;;;;;14.27;8.35;;;;;;;0.77;89.69;102921.38;5042247;28;20146;-76
2023/01/28 03:49:16;;;;;;;14.73;8.63;;;;;;;0.80;89.18;102921.34;5033166;28;20025;-76
2023/01/28 03:51:41;;;;;;;16.13;8.88;;;;;;;0.81;89.02;102920.50;5045716;28;20679;-76
2023/01/28 03:54:07;;;;;;;15.88;7.50;;;;;;;0.78;88.99;102917.97;5038997;28;20473;-75
2023/01/28 03:56:36;;;;;;;13.07;7.82;;;;;;;0.72;88.67;102923.94;5034023;28;20120;-77
2023/01/28 03:59:05;;;;;;;14.15;7.47;;;;;;;0.80;88.11;102934.09;5045143;28;20021;-77
2023/01/28 04:01:30;;;;;;;;;;;;;;;0.83;88.53;102941.75;5052256;28;20385;-76
2023/01/28 04:03:55;;;;;;;15.50;8.20;;;;;;;0.75;87.74;102928.22;5041165;28;19923;-77
2023/01/28 04:06:21;;;;;;;14.52;7.70;;;;;;;0.73;87.27;102932.47;5038897;28;20457;-77
2023/01/28 04:08:51;;;;;;;14.52;8.88;;;;;;;0.77;87.77;102957.13;5042757;28;20021;-75
2023/01/28 04:11:20;;;;;;;15.00;8.93;;;;;;;0.73;87.64;102940.13;5046869;28;20481;-76
2023/01/28 04:13:46;;;;;;;14.40;7.75;;;;;;;0.75;87.32;102948.66;5043572;28;20075;-75
2023/01/28 04:16:13;;;;;;;14.63;7.85;;;;;;;0.77;87.48;102949.47;5027696;28;20548;-75
2023/01/28 04:18:38;;;;;;;14.20;8.48;;;;;;;0.72;86.49;102938.44;5042332;28;20461;-75
2023/01/28 04:21:04;;;;;;;15.35;8.57;;;;;;;0.71;86.47;102939.28;5042649;28;20035;-75
2023/01/28 04:23:30;;;;;;;14.98;8.05;;;;;;;0.72;85.59;102939.28;5027467;28;20056;-76
2023/01/28 04:25:55;;;;;;;14.73;8.65;;;;;;;0.69;86.03;102936.75;5030308;28;20029;-75
2023/01/28 04:28:21;;;;;;;13.57;8.02;;;;;;;0.66;85.68;102928.25;5044595;28;20024;-75
2023/01/28 04:30:47;;;;;;;13.23;8.07;;;;;;;0.72;86.69;102933.31;5047470;28;20466;-76
2023/01/28 04:33:13;;;;;;;15.48;8.43;;;;;;;0.70;86.82;102941.00;5043187;28;20037;-75
2023/01/28 04:35:38;;;;;;;13.98;8.43;;;;;;;0.71;85.87;102936.75;5042199;28;20021;-77
2023/01/28 04:38:04;;;;;;;14.77;8.15;;;;;;;0.69;85.83;102941.00;5035072;28;20037;-76
2023/01/28 04:40:29;;;;;;;13.10;7.57;;;;;;;0.66;85.82;102938.47;5036076;28;20028;-76
2023/01/28 04:42:56;;;;;;;13.70;8.35;;;;;;;0.67;85.75;102945.28;5034895;28;20382;-77
2023/01/28 04:45:21;;;;;;;14.48;8.63;;;;;;;0.66;85.64;102956.34;5044560;28;20013;-77
2023/01/28 04:47:47;;;;;;;15.07;8.63;;;;;;;0.64;85.43;102945.31;5031950;28;20411;-75
2023/01/28 04:50:12;;;;;;;15.55;8.57;;;;;;;0.66;85.63;102961.44;5048742;28;20197;-76
2023/01/28 04:52:38;;;;;;;13.27;7.55;;;;;;;0.64;85.97;102952.97;5040536;28;20044;-75
2023/01/28 04:55:03;;;;;;;13.82;7.97;;;;;;;0.64;86.25;102961.47;5041927;28;20033;-76
2023/01/28 04:57:29;;;;;;;14.32;8.15;;;;;;;0.61;84.50;102963.19;5046980;28;20032;-76
2023/01/28 04:59:54;;;;;;;13.48;8.20;;;;;;;0.59;83.35;102964.91;5043019;28;20033;-77
2023/01/28 05:02:20;;;;;;;14.27;8.25;;;;;;;0.58;83.76;102966.63;5052712;28;20120;-76
2023/01/28 05:04:45;;;;;;;15.10;8.32;;;;;;;0.60;83.59;102969.16;5050423;28;20469;-76
2023/01/28 05:07:10;;;;;;;14.07;7.80;;;;;;;0.53;83.90;102969.19;5046282;28;20025;-76
2023/01/28 05:09:36;;;;;;;13.30;7.50;;;;;;;0.59;84.08;102975.97;5052406;28;20073;-76
2023/01/28 05:12:02;;;;;;;14.85;7.88;;;;;;;0.55;83.60;102970.88;5045857;28;20042;-76
2023/01/28 05:14:27;;;;;;;13.02;7.55;;;;;;;0.56;83.10;102972.56;5041223;28;20083;-77
2023/01/28 05:16:53;;;;;;;14.75;8.13;;;;;;;0.57;83.65;102969.16;5044218;28;20033;-77
2023/01/28 05:19:18;;;;;;;12.82;7.75;;;;;;;0.57;83.33;102964.03;5050795;28;20024;-77
2023/01/28 05:21:44;;;;;;;13.93;7.63;;;;;;;0.60;83.13;102964.03;5055378;28;20047;-77
2023/01/28 05:24:09;;;;;;;13.77;7.93;;;;;;;0.59;82.78;102957.25;5039066;28;20080;-76
2023/01/28 05:26:36;;;;;;;13.45;8.00;;;;;;;0.55;82.46;102950.44;5034910;28;20272;-75
2023/01/28 05:29:01;;;;;;;13.88;8.07;;;;;;;0.56;82.51;102954.69;5036573;28;20068;-75
2023/01/28 05:31:27;;;;;;;15.05;8.35;;;;;;;0.59;82.88;102947.03;5045462;28;20060;-77
2023/01/28 05:33:52;;;;;;;14.65;8.77;;;;;;;0.59;83.09;102936.81;5039031;28;20029;-76
2023/01/28 05:36:18;;;;;;;13.43;7.75;;;;;;;0.64;82.78;102945.31;5036708;28;20484;-77
2023/01/28 05:38:43;;;;;;;15.73;8.30;;;;;;;0.62;82.85;102939.34;5043323;28;20533;-76
2023/01/28 05:41:08;;;;;;;12.75;7.43;;;;;;;0.65;83.56;102941.88;5041891;28;20037;-76
2023/01/28 05:43:34;;;;;;;14.25;7.78;;;;;;;0.64;82.99;102947.84;5043240;28;20041;-77
2023/01/28 05:45:59;;;;;;;14.00;8.10;;;;;;;0.69;83.35;102953.75;5047251;28;20040;-77
2023/01/28 05:48:24;;;;;;;14.95;8.25;;;;;;;0.61;83.38;102945.31;5050212;28;20041;-77
2023/01/28 05:50:50;;;;;;;14.57;8.38;;;;;;;0.64;83.48;102960.63;5056418;28;20039;-77
2023/01/28 05:53:15;;;;;;;13.35;8.18;;;;;;;0.64;83.35;102958.91;5042698;28;20425;-76
2023/01/28 05:55:41;;;;;;;13.10;7.80;;;;;;;0.64;83.57;102950.41;5040674;28;20025;-76
2023/01/28 05:58:06;;;;;;;14.35;8.32;;;;;;;0.64;82.48;102960.63;5044313;28;20021;-76
2023/01/28 06:00:31;;;;;;;14.32;7.85;;;;;;;0.60;82.99;102957.22;5047500;28;20481;-76
2023/01/28 06:02:57;;;;;;;14.65;8.18;;;;;;;0.62;83.21;102957.22;5047785;28;20024;-77
2023/01/28 06:05:22;;;;;;;13.23;7.70;;;;;;;0.66;82.83;102966.56;5046442;28;20040;-77
2023/01/28 06:07:48;;;;;;;13.80;7.57;;;;;;;0.65;82.63;102958.06;5047282;28;20612;-77
2023/01/28 06:10:16;;;;;;;15.00;8.18;;;;;;;0.59;83.92;102936.81;5052881;28;20043;-77
2023/01/28 06:12:42;;;;;;;13.60;7.78;;;;;;;0.65;84.30;102957.22;5047068;28;20585;-77
2023/01/28 06:15:08;;;;;;;14.45;8.18;;;;;;;0.61;83.85;102935.09;5033820;28;20029;-76
2023/01/28 06:17:33;;;;;;;15.02;9.10;;;;;;;0.65;83.83;102941.88;5045610;28;20512;-76
2023/01/28 06:19:58;;;;;;;16.33;9.27;;;;;;;0.66;83.73;102953.78;5043553;28;20075;-76
2023/01/28 06:22:24;;;;;;;13.13;7.72;;;;;;;0.61;83.34;102950.41;5042879;28;20017;-76
2023/01/28 06:24:49;;;;;;;14.63;8.43;;;;;;;0.64;83.12;102950.41;5044241;28;20144;-76
2023/01/28 06:27:15;;;;;;;14.25;8.18;;;;;;;0.63;83.34;102952.13;5048203;28;20492;-77
2023/01/28 06:29:40;;;;;;;14.48;8.68;;;;;;;0.66;83.22;102961.44;5048743;28;20388;-76
2023/01/28 06:32:05;;;;;;;12.85;7.32;;;;;;;0.68;83.75;102967.38;5038266;28;20049;-76
2023/01/28 06:34:31;;;;;;;14.18;8.77;;;;;;;0.68;83.73;102964.84;5040947;28;20112;-76
2023/01/28 06:36:56;;;;;;;14.73;8.73;;;;;;;0.65;83.36;102957.22;5049440;28;20024;-77
2023/01/28 06:39:22;;;;;;;15.48;9.45;;;;;;;0.61;83.46;102945.31;5044306;28;20032;-77
2023/01/28 06:41:48;;;;;;;14.13;9.02;;;;;;;0.68;83.76;102955.47;5038638;28;20370;-77
2023/01/28 06:44:14;;;;;;;14.95;8.52;;;;;;;0.68;83.91;102957.19;5044340;28;20036;-77
2023/01/28 06:46:39;;;;;;;15.10;8.63;;;;;;;0.67;84.08;102952.94;5048598;28;20029;-76
2023/01/28 06:49:05;;;;;;;14.60;8.85;;;;;;;0.64;83.61;102950.41;5047671;28;20029;-76
2023/01/28 06:51:30;;;;;;;14.18;8.00;;;;;;;0.68;84.16;102967.38;5043328;28;20029;-76
2023/01/28 06:53:55;;;;;;;14.77;8.52;;;;;;;0.65;83.93;102962.31;5054076;28;20537;-77
2023/01/28 06:56:21;;;;;;;14.45;8.20;;;;;;;0.68;83.83;102967.38;5045776;28;20036;-77
2023/01/28 06:58:46;;;;;;;13.00;7.72;;;;;;;0.64;83.95;102965.75;5043448;28;20516;-77
2023/01/28 07:01:12;;;;;;;14.82;8.45;;;;;;;0.61;84.01;102964.03;5051830;28;20491;-75
2023/01/28 07:03:37;;;;;;;15.35;8.63;;;;;;;0.60;84.66;102964.91;5044117;28;20469;-77
2023/01/28 07:06:02;;;;;;;15.20;8.93;;;;;;;0.60;83.96;102969.16;5045663;28;20781;-77
2023/01/28 07:08:28;;;;;;;15.13;8.68;;;;;;;0.59;83.58;102987.88;5052629;22;20045;-76
2023/01/28 07:10:53;;;;;;;15.93;8.95;;;;;;;0.51;83.77;102977.69;5008468;28;20022;-76
2023/01/28 07:13:18;;;;;;;15.13;9.20;;;;;;;0.50;83.11;102988.78;5007946;28;20033;-76
2023/01/28 07:15:44;;;;;;;14.43;8.23;;;;;;;0.50;82.91;102994.72;4990272;28;20033;-77
2023/01/28 07:18:09;;;;;;;14.98;8.60;;;;;;;0.47;82.52;102994.75;4990562;28;20034;-76
2023/01/28 07:20:34;;;;;;;16.45;9.57;;;;;;;0.44;82.36;102994.75;5010008;28;20030;-78
2023/01/28 07:23:00;;;;;;;14.02;8.48;;;;;;;0.48;82.92;103000.72;5011042;28;20454;-76
2023/01/28 07:25:25;;;;;;;15.23;8.98;;;;;;;0.44;83.46;102999.84;5007842;28;20060;-76
2023/01/28 07:27:52;;;;;;;13.82;8.18;;;;;;;0.47;83.93;103014.34;5005329;28;20022;-76
2023/01/28 07:30:19;;;;;;;14.40;8.98;;;;;;;0.42;84.03;103014.34;5005556;28;20524;-77
2023/01/28 07:32:45;;;;;;;14.30;8.65;;;;;;;0.41;84.66;103015.19;5010881;28;20025;-77
2023/01/28 07:35:11;;;;;;;15.27;9.25;;;;;;;0.41;85.04;103020.31;5011301;28;20026;-76
2023/01/28 07:37:37;;;;;;;14.20;9.05;;;;;;;0.40;84.41;103018.63;5007439;28;20458;-77
2023/01/28 07:40:03;;;;;;;15.35;9.20;;;;;;;0.36;84.70;103005.88;5007683;28;20060;-77
2023/01/28 07:42:29;;;;;;;15.23;9.38;;;;;;;0.40;84.48;103018.63;5007391;28;20069;-75
2023/01/28 07:44:54;;;;;;;15.88;9.27;;;;;;;0.33;84.00;103016.91;5008374;28;20034;-76
2023/01/28 07:47:19;;;;;;;15.25;8.90;;;;;;;0.30;84.99;103006.75;5007816;28;20042;-76
2023/01/28 07:49:45;;;;;;;14.88;9.00;;;;;;;0.34;84.52;103008.41;5005754;28;20037;-76
2023/01/28 07:52:10;;;;;;;14.57;8.98;;;;;;;0.36;84.49;103016.91;5006796;28;20069;-75
2023/01/28 07:54:35;;;;;;;15.68;9.45;;;;;;;0.33;84.18;103022.03;5009196;28;20721;-75
2023/01/28 07:57:01;;;;;;;15.48;8.82;;;;;;;0.30;83.77;103022.06;5007629;28;20529;-77
2023/01/28 07:59:26;;;;;;;13.80;8.45;;;;;;;0.33;83.02;103031.38;5005705;28;20569;-76
2023/01/28 08:01:55;;;;;;;14.82;8.88;;;;;;;0.29;82.58;103033.13;5007091;28;20528;-76
2023/01/28 08:04:20;;;;;;;15.70;8.85;;;;;;;0.33;83.51;103042.44;5010592;28;20026;-77
2023/01/28 08:06:45;;;;;;;14.85;9.45;;;;;;;0.31;83.39;103033.09;5006453;28;20072;-76
2023/01/28 08:09:10;;;;;;;15.35;8.55;;;;;;;0.32;82.65;103042.47;5002540;28;20493;-76
2023/01/28 08:11:38;;;;;;;15.23;9.18;;;;;;;0.29;82.91;103045.00;4989426;28;20038;-76
2023/01/28 08:14:03;;;;;;;15.02;9.25;;;;;;;0.30;83.19;103045.03;5005389;28;20022;-78
2023/01/28 08:16:30;;;;;;;18.73;9.90;;;;;;;0.26;84.11;103045.88;4999098;28;20056;-76
2023/01/28 08:18:55;;;;;;;14.30;9.07;;;;;;;0.23;84.31;103038.22;5003117;28;20058;-76
2023/01/28 08:21:21;;;;;;;15.70;9.23;;;;;;;0.26;82.82;103045.88;5006754;28;20033;-76
2023/01/28 08:23:46;;;;;;;15.93;8.75;;;;;;;0.26;82.12;103045.88;4988913;28;20057;-76
2023/01/28 08:26:12;;;;;;;16.23;9.05;;;;;;;0.28;82.62;103048.41;5006013;28;20451;-77
2023/01/28 08:28:37;;;;;;;14.25;9.18;;;;;;;0.26;82.85;103053.53;4985036;28;20045;-76
2023/01/28 08:31:02;;;;;;;14.73;8.85;;;;;;;0.29;83.03;103061.19;5001468;28;20034;-77
2023/01/28 08:33:28;;;;;;;15.55;9.52;;;;;;;0.31;83.56;103063.72;5008731;28;20034;-76
2023/01/28 08:35:53;;;;;;;15.60;8.98;;;;;;;0.31;84.00;103059.47;5009977;28;20033;-76
2023/01/28 08:38:19;;;;;;;13.68;8.88;;;;;;;0.25;84.31;103044.19;5010116;28;20030;-76
2023/01/28 08:40:49;;;;;;;15.50;8.35;;;;;;;0.34;84.34;103059.44;5010609;28;20018;-77
2023/01/28 08:43:15;;;;;;;14.15;8.55;;;;;;;0.36;83.96;103062.88;5008548;28;20029;-76
2023/01/28 08:45:40;;;;;;;14.23;8.52;;;;;;;0.37;84.12;103067.13;4992073;28;20041;-76
2023/01/28 08:48:10;;;;;;;14.07;8.20;;;;;;;0.40;84.44;103059.47;5011085;28;20050;-77
2023/01/28 08:50:37;;;;;;;13.77;8.30;;;;;;;0.39;84.37;103067.94;5010441;28;20029;-76
2023/01/28 08:53:11;;;;;;;15.82;8.75;;;;;;;0.40;84.45;103059.47;5004490;28;20468;-76
2023/01/28 08:55:37;;;;;;;15.02;9.00;;;;;;;0.33;83.47;103062.88;5007206;28;20041;-78
2023/01/28 08:58:04;;;;;;;15.07;8.75;;;;;;;0.34;83.76;103090.06;5008946;28;20371;-78
2023/01/28 09:00:30;;;;;;;13.80;7.72;;;;;;;0.34;84.20;103094.34;5004893;28;20068;-76
2023/01/28 09:02:55;;;;;;;15.07;8.43;;;;;;;0.26;84.68;103081.59;5006128;28;20021;-76
2023/01/28 09:05:21;;;;;;;14.45;8.23;;;;;;;0.31;84.82;103085.00;5011382;28;20458;-76
2023/01/28 09:07:47;;;;;;;15.73;8.77;;;;;;;0.31;84.87;103089.25;5011049;28;20407;-77
2023/01/28 09:10:12;;;;;;;15.00;8.50;;;;;;;0.29;83.15;103081.63;5007853;28;20046;-77
2023/01/28 09:12:38;;;;;;;13.52;7.72;;;;;;;0.21;83.10;103083.31;5000682;28;20741;-76
2023/01/28 09:15:04;;;;;;;14.48;8.40;;;;;;;0.19;83.85;103074.81;5007871;28;20021;-77
2023/01/28 09:17:29;;;;;;;17.65;8.63;;;;;;;0.21;83.21;103093.53;5004468;28;20084;-76
2023/01/28 09:19:54;;;;;;;14.25;8.55;;;;;;;0.23;83.61;103109.66;5011762;28;20481;-76
2023/01/28 09:22:20;;;;;;;14.20;8.43;;;;;;;0.25;83.83;103110.53;5008747;28;20113;-76
2023/01/28 09:24:46;;;;;;;15.48;8.45;;;;;;;0.27;83.80;103111.38;4991770;28;20128;-76
2023/01/28 09:27:11;;;;;;;14.18;8.25;;;;;;;0.26;83.50;103118.19;4991534;28;20053;-76
2023/01/28 09:29:37;;;;;;;14.63;8.88;;;;;;;0.21;83.50;103108.84;5000468;28;20526;-77
2023/01/28 09:32:03;;;;;;;16.48;9.02;;;;;;;0.22;83.24;103115.63;5001962;28;20470;-76
2023/01/28 09:34:28;;;;;;;14.18;7.80;;;;;;;0.23;83.31;103124.97;4988083;28;20044;-76
2023/01/28 09:36:54;;;;;;;14.52;8.85;;;;;;;0.22;83.10;103123.28;5003582;28;20022;-76
2023/01/28 09:39:19;;;;;;;17.42;8.65;;;;;;;0.21;83.62;103121.59;5007445;28;20026;-76
2023/01/28 09:42:13;;;;;;;14.68;8.65;;;;;;;0.24;83.68;103122.44;5008401;28;20224;-76
2023/01/28 09:45:04;;;;;;;14.57;8.73;;;;;;;0.26;83.78;103122.44;4983596;28;20034;-76
2023/01/28 09:47:36;;;;;;;15.23;8.25;;;;;;;0.21;85.07;103124.16;5007155;28;20022;-77
2023/01/28 09:50:06;;;;;;;14.63;8.10;;;;;;;0.27;84.35;103119.03;5003817;28;20030;-77
2023/01/28 09:52:35;;;;;;;14.93;8.13;;;;;;;0.28;84.23;103120.72;5007689;28;20057;-76
2023/01/28 09:55:24;;;;;;;13.77;7.32;;;;;;;0.29;83.87;103127.56;5010310;28;20104;-75
2023/01/28 09:57:53;;;;;;;16.20;8.80;;;;;;;0.29;84.50;103140.31;5008233;28;20045;-76
2023/01/28 10:00:21;;;;;;;;;;;;;;;0.32;84.34;103142.84;4991052;28;20033;-76
2023/01/28 10:03:07;;;;;;;13.45;7.70;;;;;;;0.29;83.83;103142.00;5009039;28;19932;-75
2023/01/28 10:05:56;;;;;;;14.60;8.20;;;;;;;0.28;84.45;103140.28;5009000;28;20021;-76
2023/01/28 10:08:42;;;;;;;15.82;8.55;;;;;;;0.33;84.20;103139.44;5017557;28;20033;-76
2023/01/28 10:11:16;;;;;;;14.00;7.70;;;;;;;0.35;83.31;103142.84;5010194;28;20109;-75
2023/01/28 10:14:04;;;;;;;14.93;8.13;;;;;;;0.39;83.87;103133.47;5002156;28;20125;-75
2023/01/28 10:16:36;;;;;;;14.43;7.85;;;;;;;0.44;83.46;103141.97;5002451;28;20069;-76
2023/01/28 10:19:34;;;;;;;14.32;8.35;;;;;;;0.46;83.29;103141.13;5009353;28;20018;-76
2023/01/28 10:22:10;;;;;;;13.07;7.18;;;;;;;0.48;84.27;103134.31;4993921;28;20064;-76
2023/01/28 10:24:43;;;;;;;13.35;8.00;;;;;;;0.52;84.13;103130.91;4991217;28;20040;-75
2023/01/28 10:27:27;;;;;;;14.02;7.90;;;;;;;0.50;82.78;103121.53;5008662;28;20030;-75
2023/01/28 10:29:54;;;;;;;13.38;7.55;;;;;;;0.58;83.08;103134.28;5018100;28;20064;-76
2023/01/28 10:32:29;;;;;;;13.88;7.55;;;;;;;0.59;83.14;103136.00;5012903;28;20351;-75
2023/01/28 10:34:55;;;;;;;13.55;7.38;;;;;;;0.64;82.76;103140.22;5008157;28;20033;-75
2023/01/28 10:37:21;;;;;;;11.90;7.28;;;;;;;0.59;82.46;103128.31;5008697;28;20584;-75
2023/01/28 10:39:47;;;;;;;11.82;7.68;;;;;;;0.65;81.87;103135.97;5005321;28;20030;-77
2023/01/28 10:42:32;;;;;;;11.27;6.55;;;;;;;0.67;83.31;103134.25;5010472;28;20060;-76
2023/01/28 10:45:17;;;;;;;13.27;7.22;;;;;;;0.66;83.78;103124.91;5007435;28;20036;-77
2023/01/28 10:47:51;;;;;;;13.40;7.00;;;;;;;0.73;83.27;103124.00;5007208;28;20529;-76
2023/01/28 10:50:22;;;;;;;11.82;7.32;;;;;;;0.76;83.34;103131.69;4989325;28;20052;-76
2023/01/28 10:52:54;;;;;;;10.68;6.38;;;;;;;0.78;83.07;103125.69;5007884;28;20029;-76
2023/01/28 10:55:20;;;;;;;12.52;7.30;;;;;;;0.78;82.53;103118.03;5007742;28;20508;-76
2023/01/28 10:57:46;;;;;;;12.20;6.93;;;;;;;0.79;81.96;103114.63;5010074;28;20037;-77
2023/01/28 11:00:23;;;;;;;12.50;7.10;;;;;;;0.79;82.68;103124.84;5006231;28;20034;-77
2023/01/28 11:02:49;;;;;;;12.05;6.43;;;;;;;0.83;82.66;103110.34;5009203;28;20030;-76
2023/01/28 11:05:27;;;;;;;11.30;6.13;;;;;;;0.85;82.43;103095.84;5008181;28;20029;-76
2023/01/28 11:08:26;;;;;;;8.45;5.32;;;;;;;0.91;81.62;103074.53;4992577;28;20112;-76
2023/01/28 11:10:53;;;;;;;8.88;5.43;;;;;;;0.87;80.94;103089.06;4969064;28;20383;-77
2023/01/28 11:13:20;;;;;;;10.15;5.32;;;;;;;0.87;81.81;103083.94;4988358;28;20398;-77
2023/01/28 11:15:51;;;;;;;10.38;5.90;;;;;;;0.90;81.91;103076.25;5005637;28;20164;-77
2023/01/28 11:18:24;;;;;;;10.25;5.68;;;;;;;0.97;81.51;103077.91;5006724;28;20030;-77
2023/01/28 11:20:56;;;;;;;10.32;5.40;;;;;;;1.03;81.13;103062.56;5002266;28;20037;-77
2023/01/28 11:23:34;;;;;;;11.52;6.07;;;;;;;1.09;82.30;103068.47;5004757;28;20107;-77
2023/01/28 11:26:13;;;;;;;10.23;5.57;;;;;;;1.12;81.46;103066.75;5007553;28;20034;-77
2023/01/28 11:28:41;;;;;;;10.88;6.05;;;;;;;1.21;81.91;103065.88;4987960;28;20049;-77
2023/01/28 11:31:08;;;;;;;11.90;5.93;;;;;;;1.26;81.31;103064.09;5006360;28;20085;-77
2023/01/28 11:33:42;;;;;;;11.10;6.18;;;;;;;1.27;80.63;103046.22;5008111;28;20479;-77
2023/01/28 11:36:16;;;;;;;11.25;6.63;;;;;;;1.36;81.24;103035.06;5007925;28;20041;-76
2023/01/28 11:38:59;;;;;;;12.15;7.10;;;;;;;1.39;81.31;103024.81;5007065;28;20518;-76
2023/01/28 11:41:32;;;;;;;11.13;7.03;;;;;;;1.42;80.94;103003.50;4987388;28;20389;-76
2023/01/28 11:43:59;;;;;;;10.23;5.78;;;;;;;1.39;79.49;102989.03;5006825;28;20030;-77
2023/01/28 11:46:40;;;;;;;10.52;6.38;;;;;;;1.50;81.09;102987.22;4989316;28;20050;-76
2023/01/28 11:49:24;;;;;;;10.32;6.32;;;;;;;1.50;80.20;102992.34;5005628;28;20032;-76
2023/01/28 11:52:21;;;;;;;10.15;6.15;;;;;;;1.55;80.11;102995.72;5006119;28;20215;-76
2023/01/28 11:55:10;;;;;;;10.60;6.18;;;;;;;1.59;80.23;102991.41;5007508;28;20033;-77
2023/01/28 11:57:35;;;;;;;;;;;;;;;1.64;81.50;102987.09;5007530;28;20109;-76
2023/01/28 12:00:22;;;;;;;10.43;6.27;;;;;;;1.64;80.19;102976.00;5007966;28;20004;-77
2023/01/28 12:02:54;;;;;;;10.00;5.95;;;;;;;1.65;80.29;102990.50;4991247;28;20280;-76
2023/01/28 12:05:43;;;;;;;11.98;6.20;;;;;;;1.72;80.38;102994.69;5012050;28;20073;-76
2023/01/28 12:08:19;;;;;;;10.27;6.00;;;;;;;1.74;80.49;102987.84;5007696;28;20088;-76
2023/01/28 12:11:13;;;;;;;12.45;6.53;;;;;;;1.74;80.05;102996.38;5011987;28;20048;-76
2023/01/28 12:13:50;;;;;;;10.95;6.72;;;;;;;1.74;79.18;103003.22;5005406;28;20634;-76
2023/01/28 12:16:36;;;;;;;11.80;6.40;;;;;;;1.76;78.72;103016.81;5007969;28;20025;-76